createdAt,value
2019-06-27T00:02:19.022Z,23.70
2019-06-27T00:04:46.467Z,23.60
2019-06-27T00:07:13.835Z,23.70
2019-06-27T00:09:41.267Z,23.70
2019-06-27T00:12:09.021Z,23.60
2019-06-27T00:14:37.132Z,23.60
2019-06-27T00:17:04.511Z,23.50
2019-06-27T00:19:32.304Z,23.40
2019-06-27T00:22:00.143Z,23.20
2019-06-27T00:24:27.672Z,23.10
2019-06-27T00:26:57.560Z,23.10
2019-06-27T00:29:24.982Z,23.00
2019-06-27T00:31:52.408Z,23.00
2019-06-27T00:34:19.915Z,23.00
2019-06-27T00:36:47.386Z,23.00
2019-06-27T00:39:14.835Z,23.00
2019-06-27T00:41:42.323Z,23.00
2019-06-27T00:44:10.241Z,23.00
2019-06-27T00:46:37.898Z,23.00
2019-06-27T00:49:05.412Z,23.00
2019-06-27T00:51:33.222Z,23.00
2019-06-27T00:54:00.599Z,22.90
2019-06-27T00:56:28.107Z,22.80
2019-06-27T00:58:55.609Z,22.80
2019-06-27T01:01:23.006Z,22.70
2019-06-27T01:03:50.759Z,22.60
2019-06-27T01:06:18.512Z,22.60
2019-06-27T01:08:46.312Z,22.70
2019-06-27T01:11:14.160Z,22.70
2019-06-27T01:13:41.686Z,22.70
2019-06-27T01:16:09.228Z,22.70
2019-06-27T01:18:36.730Z,22.60
2019-06-27T01:21:04.294Z,22.60
2019-06-27T01:23:32.260Z,22.60
2019-06-27T01:25:59.747Z,22.60
2019-06-27T01:28:27.763Z,22.60
2019-06-27T01:30:55.235Z,22.50
2019-06-27T01:33:22.724Z,22.50
2019-06-27T01:35:50.522Z,22.40
2019-06-27T01:38:17.926Z,22.40
2019-06-27T01:40:45.358Z,22.40
2019-06-27T01:43:13.142Z,22.30
2019-06-27T01:45:45.730Z,22.30
2019-06-27T01:48:13.602Z,22.40
2019-06-27T01:50:41.125Z,22.30
2019-06-27T01:53:08.556Z,22.30
2019-06-27T01:55:36.004Z,22.30
2019-06-27T01:58:03.513Z,22.20
2019-06-27T02:00:30.859Z,22.20
2019-06-27T02:02:58.623Z,22.10
2019-06-27T02:05:26.390Z,22.20
2019-06-27T02:07:54.164Z,22.10
2019-06-27T02:10:22.430Z,22.00
2019-06-27T02:12:50.233Z,22.00
2019-06-27T02:15:17.941Z,22.00
2019-06-27T02:17:45.647Z,22.00
2019-06-27T02:20:13.857Z,22.00
2019-06-27T02:22:41.283Z,22.10
2019-06-27T02:25:11.127Z,21.90
2019-06-27T02:27:38.630Z,22.00
2019-06-27T02:30:07.101Z,21.90
2019-06-27T02:32:34.710Z,21.90
2019-06-27T02:35:02.363Z,21.80
2019-06-27T02:37:29.879Z,21.90
2019-06-27T02:39:57.400Z,21.80
2019-06-27T02:42:25.018Z,21.80
2019-06-27T02:44:52.549Z,21.90
2019-06-27T02:47:20.153Z,21.80
2019-06-27T02:49:50.230Z,21.80
2019-06-27T02:52:17.492Z,21.80
2019-06-27T02:54:45.655Z,21.80
2019-06-27T02:57:13.772Z,21.80
2019-06-27T02:59:41.458Z,21.70
2019-06-27T03:02:09.213Z,21.70
2019-06-27T03:04:36.747Z,21.70
2019-06-27T03:07:04.233Z,21.60
2019-06-27T03:09:31.719Z,21.70
2019-06-27T03:12:00.509Z,21.60
2019-06-27T03:14:28.319Z,21.60
2019-06-27T03:16:56.057Z,21.50
2019-06-27T03:19:23.570Z,21.60
2019-06-27T03:21:51.049Z,21.60
2019-06-27T03:24:18.592Z,21.60
2019-06-27T03:26:46.034Z,21.70
2019-06-27T03:29:13.937Z,21.70
2019-06-27T03:31:41.738Z,21.70
2019-06-27T03:34:09.665Z,21.80
2019-06-27T03:36:37.221Z,21.70
2019-06-27T03:39:05.487Z,21.70
2019-06-27T03:41:33.048Z,21.70
2019-06-27T03:44:00.539Z,21.70
2019-06-27T03:46:28.283Z,21.70
2019-06-27T03:48:55.669Z,21.70
2019-06-27T03:51:23.408Z,21.70
2019-06-27T03:53:50.938Z,21.80
2019-06-27T03:56:18.721Z,21.80
2019-06-27T03:58:46.239Z,21.80
2019-06-27T04:01:13.983Z,21.80
2019-06-27T04:03:42.938Z,21.90
2019-06-27T04:06:10.778Z,21.90
2019-06-27T04:08:38.296Z,21.90
2019-06-27T04:11:05.843Z,22.00
2019-06-27T04:13:33.394Z,22.00
2019-06-27T04:16:01.074Z,22.00
2019-06-27T04:18:28.546Z,22.10
2019-06-27T04:20:56.032Z,22.10
2019-06-27T04:23:23.584Z,22.20
2019-06-27T04:25:51.432Z,22.20
2019-06-27T04:28:19.212Z,22.30
2019-06-27T04:30:46.794Z,22.40
2019-06-27T04:33:14.312Z,22.70
2019-06-27T04:35:41.833Z,22.60
2019-06-27T04:38:09.405Z,22.60
2019-06-27T04:40:37.109Z,22.70
2019-06-27T04:43:06.014Z,22.80
2019-06-27T04:45:33.812Z,22.80
2019-06-27T04:48:01.615Z,22.90
2019-06-27T04:50:29.048Z,22.90
2019-06-27T04:52:56.604Z,23.00
2019-06-27T04:55:24.118Z,23.00
2019-06-27T04:57:51.568Z,23.10
2019-06-27T05:00:26.549Z,23.20
2019-06-27T05:02:54.027Z,23.30
2019-06-27T05:05:21.597Z,23.40
2019-06-27T05:07:49.166Z,23.50
2019-06-27T05:10:18.059Z,23.60
2019-06-27T05:12:45.611Z,23.70
2019-06-27T05:15:13.123Z,23.80
2019-06-27T05:17:40.531Z,23.90
2019-06-27T05:20:08.521Z,24.00
2019-06-27T05:22:35.986Z,24.20
2019-06-27T05:25:03.641Z,24.30
2019-06-27T05:27:31.198Z,24.40
2019-06-27T05:30:08.839Z,24.60
2019-06-27T05:32:28.317Z,24.60
2019-06-27T05:34:55.861Z,24.70
2019-06-27T05:37:23.803Z,24.80
2019-06-27T05:39:51.815Z,24.90
2019-06-27T05:42:19.296Z,25.00
2019-06-27T05:44:46.833Z,25.10
2019-06-27T05:47:14.318Z,25.30
2019-06-27T05:49:41.825Z,25.30
2019-06-27T05:52:11.959Z,25.40
2019-06-27T05:54:39.761Z,25.50
2019-06-27T05:57:07.368Z,25.60
2019-06-27T05:59:34.815Z,25.70
2019-06-27T06:02:02.266Z,25.80
2019-06-27T06:04:29.787Z,25.90
2019-06-27T06:06:57.557Z,26.00
2019-06-27T06:09:25.042Z,26.10
2019-06-27T06:11:52.547Z,26.20
2019-06-27T06:14:20.000Z,26.20
2019-06-27T06:16:47.353Z,26.30
2019-06-27T06:19:14.904Z,26.30
2019-06-27T06:21:42.351Z,26.40
2019-06-27T06:24:09.887Z,26.60
2019-06-27T06:26:37.275Z,26.60
2019-06-27T06:29:04.942Z,26.70
2019-06-27T06:31:32.367Z,26.80
2019-06-27T06:33:59.864Z,26.90
2019-06-27T06:36:27.371Z,27.20
2019-06-27T06:38:55.130Z,27.40
2019-06-27T06:41:22.655Z,27.70
2019-06-27T06:43:50.310Z,28.20
2019-06-27T06:46:18.101Z,28.60
2019-06-27T06:48:45.473Z,28.90
2019-06-27T06:51:13.431Z,29.20
2019-06-27T06:53:40.933Z,29.40
2019-06-27T06:56:08.403Z,29.60
2019-06-27T06:58:35.855Z,29.60
2019-06-27T07:01:03.338Z,29.90
2019-06-27T07:03:31.225Z,30.10
2019-06-27T07:05:58.722Z,30.20
2019-06-27T07:08:26.186Z,30.50
2019-06-27T07:10:53.657Z,30.60
2019-06-27T07:13:21.045Z,30.90
2019-06-27T07:15:48.437Z,31.00
2019-06-27T07:18:15.960Z,31.30
2019-06-27T07:20:43.360Z,31.60
2019-06-27T07:23:10.829Z,31.50
2019-06-27T07:25:38.358Z,31.50
2019-06-27T07:28:05.832Z,31.80
2019-06-27T07:30:33.675Z,32.10
2019-06-27T07:33:01.079Z,32.30
2019-06-27T07:35:28.493Z,32.60
2019-06-27T07:45:18.280Z,32.80
2019-06-27T07:47:45.754Z,33.30
2019-06-27T07:50:13.869Z,33.40
2019-06-27T07:52:41.374Z,33.50
2019-06-27T07:55:08.909Z,33.80
2019-06-27T07:57:36.863Z,34.10
2019-06-27T08:00:05.236Z,33.80
2019-06-27T08:02:32.695Z,34.00
2019-06-27T08:05:00.157Z,33.90
2019-06-27T08:07:27.925Z,33.60
2019-06-27T08:09:55.476Z,33.80
2019-06-27T08:12:23.106Z,33.80
2019-06-27T08:14:50.666Z,33.50
2019-06-27T08:17:18.158Z,33.60
2019-06-27T08:19:45.725Z,33.90
2019-06-27T08:22:13.677Z,34.40
2019-06-27T08:29:37.056Z,34.90
2019-06-27T08:32:04.921Z,33.40
2019-06-27T08:34:32.546Z,34.50
2019-06-27T08:36:59.981Z,35.00
2019-06-27T08:46:49.830Z,35.50
2019-06-27T08:49:17.635Z,36.70
2019-06-27T08:51:45.130Z,36.70
2019-06-27T08:54:12.514Z,36.70
2019-06-27T08:56:40.672Z,36.90
2019-06-27T08:59:08.205Z,37.20
2019-06-27T09:01:35.740Z,37.30
2019-06-27T09:04:03.235Z,37.30
2019-06-27T09:06:30.663Z,37.30
2019-06-27T09:08:58.180Z,37.40
2019-06-27T09:11:25.762Z,37.50
2019-06-27T09:13:53.536Z,37.40
2019-06-27T09:16:21.037Z,37.60
2019-06-27T09:18:48.450Z,38.00
2019-06-27T09:21:16.198Z,38.30
2019-06-27T09:23:43.761Z,38.30
2019-06-27T09:26:11.203Z,38.00
2019-06-27T09:28:38.977Z,37.90
2019-06-27T09:31:06.423Z,38.10
2019-06-27T09:33:34.342Z,38.30
2019-06-27T09:36:01.856Z,38.50
2019-06-27T09:38:29.637Z,38.60
2019-06-27T09:40:57.427Z,38.40
2019-06-27T09:43:24.933Z,38.80
2019-06-27T09:45:52.441Z,39.10
2019-06-27T09:48:20.217Z,39.10
2019-06-27T09:50:48.010Z,38.50
2019-06-27T09:53:15.476Z,38.40
2019-06-27T09:55:43.052Z,38.50
2019-06-27T09:58:10.577Z,39.30
2019-06-27T10:00:38.242Z,39.30
2019-06-27T10:03:05.698Z,39.50
2019-06-27T10:05:33.236Z,39.40
2019-06-27T10:08:00.997Z,39.80
2019-06-27T10:10:28.503Z,39.50
2019-06-27T10:12:56.299Z,39.70
2019-06-27T10:15:24.104Z,40.20
2019-06-27T10:17:51.603Z,40.50
2019-06-27T10:20:19.104Z,40.80
2019-06-27T10:22:46.590Z,40.80
2019-06-27T10:25:14.128Z,40.30
2019-06-27T10:27:41.638Z,40.20
2019-06-27T10:30:10.985Z,40.10
2019-06-27T10:32:38.462Z,40.20
2019-06-27T10:35:05.958Z,40.10
2019-06-27T10:37:33.750Z,41.00
2019-06-27T10:40:01.332Z,40.40
2019-06-27T10:42:28.804Z,39.70
2019-06-27T10:44:56.982Z,40.00
2019-06-27T10:47:24.482Z,40.40
2019-06-27T10:49:52.010Z,40.60
2019-06-27T10:52:19.524Z,40.70
2019-06-27T10:54:46.996Z,40.90
2019-06-27T10:57:14.595Z,41.00
2019-06-27T10:59:42.598Z,40.60
2019-06-27T11:02:09.971Z,41.10
2019-06-27T11:04:37.455Z,41.20
2019-06-27T11:07:04.887Z,41.40
2019-06-27T11:09:32.379Z,40.50
2019-06-27T11:12:00.213Z,40.30
2019-06-27T11:14:28.009Z,40.70
2019-06-27T11:16:55.560Z,40.80
2019-06-27T11:19:23.192Z,41.70
2019-06-27T11:21:50.725Z,41.90
2019-06-27T11:24:18.397Z,42.10
2019-06-27T11:26:47.080Z,43.10
2019-06-27T11:29:15.100Z,43.30
2019-06-27T11:31:42.772Z,43.30
2019-06-27T11:34:10.506Z,42.40
2019-06-27T11:36:38.456Z,42.40
2019-06-27T11:39:06.270Z,42.30
2019-06-27T11:41:33.721Z,42.00
2019-06-27T11:44:04.618Z,41.80
2019-06-27T11:46:32.105Z,42.20
2019-06-27T11:48:59.593Z,42.30
2019-06-27T11:51:27.673Z,42.50
2019-06-27T11:53:55.480Z,42.90
2019-06-27T11:56:22.997Z,43.40
2019-06-27T11:58:50.532Z,43.70
2019-06-27T12:01:18.057Z,43.80
2019-06-27T12:03:49.743Z,43.60
2019-06-27T12:06:15.216Z,43.60
2019-06-27T12:08:43.162Z,43.90
2019-06-27T12:11:11.210Z,44.50
2019-06-27T12:13:38.764Z,43.70
2019-06-27T12:16:06.253Z,43.00
2019-06-27T12:18:34.116Z,43.10
2019-06-27T12:21:04.826Z,42.60
2019-06-27T12:23:31.428Z,42.10
2019-06-27T12:25:58.995Z,41.80
2019-06-27T12:28:26.843Z,41.10
2019-06-27T12:30:54.934Z,39.20
2019-06-27T12:33:23.249Z,38.40
2019-06-27T12:35:50.867Z,37.50
2019-06-27T12:38:18.612Z,37.10
2019-06-27T12:40:46.075Z,36.70
2019-06-27T12:43:14.654Z,36.30
2019-06-27T12:45:42.318Z,36.00
2019-06-27T12:48:10.320Z,35.70
2019-06-27T12:50:37.896Z,35.90
2019-06-27T12:53:05.447Z,35.70
2019-06-27T12:55:33.042Z,35.10
2019-06-27T12:58:00.621Z,34.80
2019-06-27T13:00:28.127Z,34.70
2019-06-27T13:02:55.711Z,34.80
2019-06-27T13:05:23.230Z,34.70
2019-06-27T13:07:50.853Z,34.80
2019-06-27T13:10:20.366Z,34.90
2019-06-27T13:12:47.930Z,34.90
2019-06-27T13:15:15.516Z,35.00
2019-06-27T13:17:43.074Z,35.00
2019-06-27T13:20:11.032Z,34.80
2019-06-27T13:22:38.496Z,34.80
2019-06-27T13:25:06.011Z,35.00
2019-06-27T13:27:33.553Z,35.10
2019-06-27T13:30:01.139Z,34.60
2019-06-27T13:32:28.590Z,34.10
2019-06-27T13:34:56.067Z,34.20
2019-06-27T13:37:23.560Z,34.10
2019-06-27T13:39:51.047Z,34.10
2019-06-27T13:42:18.862Z,34.10
2019-06-27T13:44:46.448Z,34.20
2019-06-27T13:47:14.447Z,34.00
2019-06-27T13:49:45.133Z,34.20
2019-06-27T13:52:11.375Z,34.20
2019-06-27T13:54:38.767Z,34.20
2019-06-27T13:57:06.715Z,34.20
2019-06-27T13:59:34.244Z,34.20
2019-06-27T14:02:01.852Z,34.30
2019-06-27T14:04:29.394Z,34.30
2019-06-27T14:06:56.923Z,34.30
2019-06-27T14:09:24.689Z,34.30
2019-06-27T14:11:52.514Z,34.30
2019-06-27T14:14:20.002Z,34.30
2019-06-27T14:16:47.435Z,34.30
2019-06-27T14:19:15.833Z,34.10
2019-06-27T14:21:43.337Z,34.00
2019-06-27T14:24:11.368Z,33.80
2019-06-27T14:26:38.868Z,33.90
2019-06-27T14:29:06.414Z,33.90
2019-06-27T14:31:33.890Z,34.20
2019-06-27T14:34:01.451Z,34.20
2019-06-27T14:36:29.412Z,34.00
2019-06-27T14:38:56.931Z,33.90
2019-06-27T14:41:24.511Z,33.90
2019-06-27T14:43:52.037Z,33.80
2019-06-27T14:46:19.484Z,34.10
2019-06-27T14:48:47.046Z,33.50
2019-06-27T14:51:14.599Z,33.50
2019-06-27T14:53:42.133Z,33.50
2019-06-27T14:56:09.609Z,33.70
2019-06-27T14:58:37.153Z,33.60
2019-06-27T15:01:09.376Z,33.50
2019-06-27T15:03:34.027Z,33.50
2019-06-27T15:06:01.390Z,33.40
2019-06-27T15:08:29.258Z,33.40
2019-06-27T15:10:56.743Z,33.20
2019-06-27T15:13:25.095Z,33.10
2019-06-27T15:15:52.651Z,33.00
2019-06-27T15:18:20.479Z,33.00
2019-06-27T15:20:49.810Z,33.00
2019-06-27T15:23:17.718Z,33.00
2019-06-27T15:25:46.135Z,32.90
2019-06-27T15:28:14.358Z,32.80
2019-06-27T15:30:41.992Z,33.00
2019-06-27T15:33:10.448Z,32.90
2019-06-27T15:35:51.744Z,32.70
2019-06-27T15:38:07.966Z,32.70
2019-06-27T15:40:35.755Z,32.50
2019-06-27T15:43:03.176Z,32.40
2019-06-27T15:45:30.710Z,32.60
2019-06-27T15:47:58.599Z,32.40
2019-06-27T15:50:26.453Z,32.40
2019-06-27T15:57:48.765Z,32.00
2019-06-27T16:00:16.574Z,31.90
2019-06-27T16:02:44.793Z,31.80
2019-06-27T16:05:12.945Z,31.80
2019-06-27T16:07:40.544Z,31.80
2019-06-27T16:10:08.314Z,31.80
2019-06-27T16:12:36.121Z,31.90
2019-06-27T16:15:04.416Z,31.60
2019-06-27T16:17:32.455Z,31.40
2019-06-27T16:19:59.950Z,31.20
2019-06-27T16:22:27.393Z,31.00
2019-06-27T16:24:55.233Z,31.10
2019-06-27T16:27:22.648Z,31.00
2019-06-27T16:29:50.117Z,30.90
2019-06-27T16:32:17.722Z,30.80
2019-06-27T16:34:45.227Z,30.70
2019-06-27T16:37:12.717Z,30.70
2019-06-27T16:39:40.196Z,30.70
2019-06-27T16:42:07.595Z,30.70
2019-06-27T16:44:35.113Z,30.60
2019-06-27T16:47:03.022Z,30.50
2019-06-27T16:49:30.533Z,30.30
2019-06-27T16:52:03.357Z,30.30
2019-06-27T16:54:34.746Z,30.30
2019-06-27T16:57:02.275Z,30.20
2019-06-27T16:59:30.068Z,30.30
2019-06-27T17:01:57.478Z,30.10
2019-06-27T17:04:25.470Z,30.10
2019-06-27T17:06:53.330Z,30.10
2019-06-27T17:09:20.873Z,30.00
2019-06-27T17:11:48.273Z,29.90
2019-06-27T17:14:15.921Z,29.70
2019-06-27T17:16:43.880Z,29.70
2019-06-27T17:19:11.675Z,29.70
2019-06-27T17:21:39.150Z,29.50
2019-06-27T17:24:06.599Z,29.50
2019-06-27T17:26:34.082Z,29.40
2019-06-27T17:29:01.874Z,29.30
2019-06-27T17:31:29.364Z,29.20
2019-06-27T17:33:57.883Z,29.10
2019-06-27T17:36:25.388Z,29.10
2019-06-27T17:38:52.852Z,29.00
2019-06-27T17:41:20.710Z,28.90
2019-06-27T17:43:48.091Z,28.80
2019-06-27T17:46:15.759Z,28.70
2019-06-27T17:48:44.271Z,28.80
2019-06-27T17:51:11.716Z,28.60
2019-06-27T17:53:39.164Z,28.50
2019-06-27T17:56:06.708Z,28.40
2019-06-27T17:58:34.444Z,28.30
2019-06-27T18:01:01.987Z,28.20
2019-06-27T18:03:29.428Z,28.10
2019-06-27T18:05:57.119Z,28.20
2019-06-27T18:08:24.949Z,28.00
2019-06-27T18:11:01.192Z,28.00
2019-06-27T18:13:28.704Z,27.90
2019-06-27T18:15:56.214Z,27.80
2019-06-27T18:18:24.164Z,27.70
2019-06-27T18:20:51.560Z,27.60
2019-06-27T18:23:18.983Z,27.40
2019-06-27T18:25:46.669Z,27.30
2019-06-27T18:28:14.184Z,27.20
2019-06-27T18:30:41.656Z,27.20
2019-06-27T18:33:09.081Z,27.10
2019-06-27T18:35:37.128Z,27.00
2019-06-27T18:38:04.828Z,26.90
2019-06-27T18:40:32.272Z,26.80
2019-06-27T18:42:59.799Z,26.60
2019-06-27T18:45:27.842Z,26.50
2019-06-27T18:50:23.168Z,26.30
2019-06-27T18:52:50.692Z,26.20
2019-06-27T18:55:18.215Z,26.10
2019-06-27T18:57:45.853Z,25.90
2019-06-27T19:00:13.458Z,25.90
2019-06-27T19:02:40.997Z,25.80
2019-06-27T19:05:10.422Z,25.70
2019-06-27T19:07:45.640Z,25.60
2019-06-27T19:10:08.850Z,25.50
2019-06-27T19:12:36.679Z,25.30
2019-06-27T19:15:04.219Z,25.30
2019-06-27T19:17:31.717Z,25.10
2019-06-27T19:20:03.485Z,25.10
2019-06-27T19:22:57.954Z,24.90
2019-06-27T19:25:29.566Z,24.70
2019-06-27T19:27:57.362Z,24.80
2019-06-27T19:30:27.998Z,24.70
2019-06-27T19:32:55.417Z,24.60
2019-06-27T19:35:23.141Z,24.50
2019-06-27T19:38:02.150Z,24.50
2019-06-27T19:40:24.145Z,24.40
2019-06-27T19:42:51.583Z,24.10
2019-06-27T19:45:19.132Z,24.00
2019-06-27T19:47:46.600Z,24.00
2019-06-27T19:50:14.321Z,23.90
2019-06-27T19:52:42.098Z,23.80
2019-06-27T19:55:09.771Z,23.70
2019-06-27T19:57:37.154Z,23.40
2019-06-27T20:00:05.951Z,23.30
2019-06-27T20:02:33.717Z,23.10
2019-06-27T20:05:01.658Z,22.90
2019-06-27T20:07:29.505Z,22.90
2019-06-27T20:09:57.351Z,22.90
2019-06-27T20:12:24.747Z,22.80
2019-06-27T20:14:52.248Z,22.60
2019-06-27T20:17:19.633Z,22.50
2019-06-27T20:19:47.408Z,22.40
2019-06-27T20:22:15.175Z,22.40
2019-06-27T20:24:43.058Z,22.30
2019-06-27T20:27:10.723Z,22.30
2019-06-27T20:29:38.195Z,22.30
2019-06-27T20:32:05.593Z,22.10
2019-06-27T20:34:33.181Z,22.00
2019-06-27T20:37:00.667Z,22.00
2019-06-27T20:39:28.204Z,21.90
2019-06-27T20:41:55.762Z,21.90
2019-06-27T20:44:24.967Z,21.80
2019-06-27T20:46:52.371Z,21.80
2019-06-27T20:49:19.894Z,21.70
2019-06-27T20:51:47.357Z,21.70
2019-06-27T20:54:15.266Z,21.80
2019-06-27T20:56:42.749Z,21.70
2019-06-27T20:59:10.355Z,21.70
2019-06-27T21:01:38.147Z,21.70
2019-06-27T21:04:05.643Z,21.60
2019-06-27T21:06:33.133Z,21.50
2019-06-27T21:09:00.649Z,21.30
2019-06-27T21:11:28.211Z,21.10
2019-06-27T21:13:55.735Z,21.00
2019-06-27T21:16:23.480Z,20.90
2019-06-27T21:18:51.447Z,20.80
2019-06-27T21:21:19.461Z,20.60
2019-06-27T21:23:47.394Z,20.70
2019-06-27T21:26:14.883Z,20.90
2019-06-27T21:28:42.697Z,20.80
2019-06-27T21:31:10.214Z,20.80
2019-06-27T21:33:38.153Z,20.70
2019-06-27T21:36:05.668Z,20.80
2019-06-27T21:38:33.211Z,20.70
2019-06-27T21:41:00.705Z,20.60
2019-06-27T21:43:28.095Z,20.50
2019-06-27T21:45:55.571Z,20.50
2019-06-27T21:48:23.022Z,20.50
2019-06-27T21:50:51.497Z,20.60
2019-06-27T21:53:18.983Z,20.50
2019-06-27T21:55:46.340Z,20.50
2019-06-27T21:58:13.740Z,20.40
2019-06-27T22:00:42.579Z,20.40
2019-06-27T22:03:10.003Z,20.30
2019-06-27T22:05:37.517Z,20.20
2019-06-27T22:08:05.162Z,20.10
2019-06-27T22:10:32.971Z,20.10
2019-06-27T22:13:00.737Z,20.10
2019-06-27T22:15:28.669Z,20.00
2019-06-27T22:17:56.170Z,20.00
2019-06-27T22:20:23.948Z,20.00
2019-06-27T22:22:51.452Z,19.90
2019-06-27T22:25:18.851Z,19.90
2019-06-27T22:27:46.369Z,19.70
2019-06-27T22:30:14.025Z,19.60
2019-06-27T22:32:41.812Z,19.40
2019-06-27T22:35:09.708Z,19.40
2019-06-27T22:37:36.934Z,19.30
2019-06-27T22:40:23.255Z,19.20
2019-06-27T22:43:09.217Z,19.20
2019-06-27T22:45:54.997Z,19.10
2019-06-27T22:48:22.332Z,19.00
2019-06-27T22:51:00.836Z,19.00
2019-06-27T22:53:30.761Z,19.00
2019-06-27T22:55:58.074Z,19.10
2019-06-27T22:58:25.574Z,19.10
2019-06-27T23:00:53.280Z,19.00
2019-06-27T23:03:21.133Z,19.00
2019-06-27T23:05:48.852Z,18.90
2019-06-27T23:08:16.274Z,18.90
2019-06-27T23:10:44.096Z,18.80
2019-06-27T23:13:11.456Z,18.90
2019-06-27T23:15:38.946Z,18.80
2019-06-27T23:18:06.381Z,18.70
2019-06-27T23:20:33.759Z,18.60
2019-06-27T23:23:01.120Z,18.70
2019-06-27T23:25:28.663Z,18.70
2019-06-27T23:27:56.194Z,18.60
2019-06-27T23:30:23.929Z,18.60
2019-06-27T23:32:51.693Z,18.50
2019-06-27T23:35:19.123Z,18.40
2019-06-27T23:37:46.632Z,18.40
2019-06-27T23:40:15.289Z,18.40
2019-06-27T23:42:43.167Z,18.30
2019-06-27T23:45:10.669Z,18.20
2019-06-27T23:47:38.079Z,18.10
2019-06-27T23:50:06.225Z,18.20
2019-06-27T23:52:34.156Z,18.80
2019-06-27T23:55:01.684Z,18.20
2019-06-27T23:57:29.415Z,18.10
2019-06-27T23:59:56.929Z,18.00
